createdAt,value
2023-03-06T00:00:57.071Z,-4.08
2023-03-06T00:06:03.814Z,-4.06
2023-03-06T00:11:10.246Z,-4.09
2023-03-06T00:16:18.088Z,-4.06
2023-03-06T00:21:24.834Z,-4.11
2023-03-06T00:26:34.297Z,-4.14
2023-03-06T00:31:45.084Z,-4.26
2023-03-06T00:36:51.798Z,-4.22
2023-03-06T00:41:58.313Z,-4.19
2023-03-06T00:47:06.678Z,-4.14
2023-03-06T00:52:12.830Z,-4.10
2023-03-06T00:57:19.352Z,-4.27
2023-03-06T01:02:26.966Z,-4.32
2023-03-06T01:07:36.760Z,-4.30
2023-03-06T01:12:43.254Z,-4.30
2023-03-06T01:17:55.373Z,-4.32
2023-03-06T01:23:02.230Z,-4.28
2023-03-06T01:28:09.067Z,-4.44
2023-03-06T01:33:17.572Z,-4.38
2023-03-06T01:38:24.351Z,-4.32
2023-03-06T01:43:34.109Z,-4.44
2023-03-06T01:48:44.460Z,-4.43
2023-03-06T01:53:52.734Z,-4.43
2023-03-06T01:59:00.077Z,-4.53
2023-03-06T02:04:08.811Z,-4.47
2023-03-06T02:09:16.110Z,-4.50
2023-03-06T02:14:23.840Z,-4.48
2023-03-06T02:19:48.009Z,-4.50
2023-03-06T02:25:04.384Z,-4.64
2023-03-06T02:30:17.591Z,-4.68
2023-03-06T02:35:26.988Z,-4.72
2023-03-06T02:40:37.137Z,-4.74
2023-03-06T02:45:48.808Z,-4.75
2023-03-06T02:50:55.269Z,-4.79
2023-03-06T02:56:02.015Z,-4.77
2023-03-06T03:01:10.172Z,-4.83
2023-03-06T03:06:17.824Z,-4.81
2023-03-06T03:11:27.970Z,-4.90
2023-03-06T03:16:38.122Z,-4.96
2023-03-06T03:21:45.374Z,-5.05
2023-03-06T03:26:51.845Z,-5.00
2023-03-06T03:32:01.619Z,-5.00
2023-03-06T03:37:08.111Z,-5.08
2023-03-06T03:42:14.538Z,-5.10
2023-03-06T03:47:22.527Z,-5.14
2023-03-06T03:52:29.981Z,-5.16
2023-03-06T03:57:36.310Z,-5.22
2023-03-06T04:02:45.223Z,-5.25
2023-03-06T04:08:07.541Z,-5.31
2023-03-06T04:13:17.283Z,-5.32
2023-03-06T04:18:26.950Z,-5.42
2023-03-06T04:23:37.346Z,-5.40
2023-03-06T04:28:44.877Z,-5.40
2023-03-06T04:33:53.858Z,-5.44
2023-03-06T04:39:03.132Z,-5.46
2023-03-06T04:44:11.443Z,-5.49
2023-03-06T04:49:19.306Z,-5.57
2023-03-06T04:54:25.943Z,-5.60
2023-03-06T04:59:32.612Z,-5.60
2023-03-06T05:04:40.929Z,-5.70
2023-03-06T05:09:47.737Z,-5.64
2023-03-06T05:14:54.552Z,-5.66
2023-03-06T05:20:02.841Z,-5.66
2023-03-06T05:25:10.953Z,-5.58
2023-03-06T05:30:19.064Z,-5.63
2023-03-06T05:35:26.876Z,-5.67
2023-03-06T05:40:33.417Z,-5.66
2023-03-06T05:45:39.851Z,-5.69
2023-03-06T05:50:47.659Z,-5.66
2023-03-06T05:55:59.607Z,-5.59
2023-03-06T06:01:12.557Z,-5.50
2023-03-06T06:06:20.889Z,-5.41
2023-03-06T06:11:27.433Z,-5.27
2023-03-06T06:16:34.452Z,-5.16
2023-03-06T06:21:42.180Z,-5.03
2023-03-06T06:26:51.102Z,-4.88
2023-03-06T06:31:58.404Z,-4.81
2023-03-06T06:37:06.093Z,-4.69
2023-03-06T06:42:31.222Z,-4.57
2023-03-06T06:47:41.779Z,-4.47
2023-03-06T06:52:49.773Z,-4.37
2023-03-06T06:57:56.393Z,-4.27
2023-03-06T07:03:02.572Z,-4.17
2023-03-06T07:08:10.920Z,-4.05
2023-03-06T07:13:17.362Z,-3.98
2023-03-06T07:18:23.844Z,-3.91
2023-03-06T07:23:31.674Z,-3.76
2023-03-06T07:28:51.635Z,-3.64
2023-03-06T07:33:59.320Z,-3.51
2023-03-06T07:39:07.905Z,-3.34
2023-03-06T07:44:14.205Z,-3.24
2023-03-06T07:49:20.588Z,-3.07
2023-03-06T07:54:30.924Z,-2.93
2023-03-06T07:59:37.189Z,-2.77
2023-03-06T08:04:43.973Z,-2.70
2023-03-06T08:09:56.315Z,-2.60
2023-03-06T08:15:02.789Z,-2.42
2023-03-06T08:20:15.249Z,-2.33
2023-03-06T08:25:25.024Z,-2.24
2023-03-06T08:30:32.262Z,-2.18
2023-03-06T08:35:39.872Z,-2.05
2023-03-06T08:40:47.760Z,-1.92
2023-03-06T08:45:55.848Z,-1.87
2023-03-06T08:51:02.544Z,-1.73
2023-03-06T08:56:17.483Z,-1.62
2023-03-06T09:01:26.441Z,-1.51
2023-03-06T09:06:34.616Z,-1.43
2023-03-06T09:11:42.868Z,-1.35
2023-03-06T09:16:49.474Z,-1.27
2023-03-06T09:21:58.163Z,-1.14
2023-03-06T09:27:06.305Z,-1.01
2023-03-06T09:32:12.717Z,-0.82
2023-03-06T09:37:19.778Z,-0.66
2023-03-06T09:42:29.002Z,-0.57
2023-03-06T09:47:54.142Z,-0.50
2023-03-06T09:53:43.660Z,-0.28
2023-03-06T09:58:55.561Z,-0.21
2023-03-06T10:04:13.178Z,-0.25
2023-03-06T10:09:24.978Z,-0.16
2023-03-06T10:14:39.572Z,-0.09
2023-03-06T10:19:47.860Z,-0.02
2023-03-06T10:25:04.896Z,-0.06
2023-03-06T10:30:30.646Z,0.07
2023-03-06T10:35:49.880Z,0.16
2023-03-06T10:41:09.885Z,0.20
2023-03-06T10:46:29.933Z,0.26
2023-03-06T10:51:36.347Z,0.33
2023-03-06T10:56:48.786Z,0.39
2023-03-06T11:02:01.393Z,0.39
2023-03-06T11:07:19.472Z,0.44
2023-03-06T11:12:30.667Z,0.47
2023-03-06T11:17:49.606Z,0.51
2023-03-06T11:23:01.551Z,0.53
2023-03-06T11:28:18.625Z,0.55
2023-03-06T11:33:35.958Z,0.65
2023-03-06T11:38:50.378Z,0.69
2023-03-06T11:44:07.713Z,0.73
2023-03-06T11:49:26.176Z,0.76
2023-03-06T11:54:33.995Z,0.80
2023-03-06T12:00:09.424Z,0.77
2023-03-06T12:05:44.407Z,0.70
2023-03-06T12:10:55.508Z,0.66
2023-03-06T12:16:35.858Z,0.68
2023-03-06T12:21:58.195Z,0.64
2023-03-06T12:27:19.809Z,0.60
2023-03-06T12:32:42.158Z,0.54
2023-03-06T12:38:04.943Z,0.45
2023-03-06T12:43:49.515Z,0.40
2023-03-06T12:49:06.975Z,0.34
2023-03-06T12:54:16.286Z,0.30
2023-03-06T12:59:43.136Z,0.24
2023-03-06T13:05:03.116Z,0.16
2023-03-06T13:10:22.909Z,0.08
2023-03-06T13:15:42.272Z,0.10
2023-03-06T13:20:49.342Z,0.11
2023-03-06T13:25:57.843Z,0.06
2023-03-06T13:31:05.089Z,0.03
2023-03-06T13:36:34.364Z,0.00
2023-03-06T13:42:00.403Z,-0.05
2023-03-06T13:47:20.733Z,-0.07
2023-03-06T13:52:41.695Z,-0.19
2023-03-06T13:58:09.765Z,-0.12
2023-03-06T14:04:02.019Z,-0.11
2023-03-06T14:09:15.681Z,-0.04
2023-03-06T14:14:34.483Z,-0.01
2023-03-06T14:19:41.330Z,-0.05
2023-03-06T14:25:00.140Z,-0.09
2023-03-06T14:30:17.537Z,-0.01
2023-03-06T14:35:30.656Z,0.04
2023-03-06T14:40:43.727Z,0.01
2023-03-06T14:45:58.389Z,0.01
2023-03-06T14:51:05.205Z,0.05
2023-03-06T14:56:20.088Z,0.09
2023-03-06T15:01:34.905Z,0.08
2023-03-06T15:06:45.817Z,0.07
2023-03-06T15:12:02.697Z,0.08
2023-03-06T15:17:40.669Z,0.07
2023-03-06T15:22:51.873Z,0.12
2023-03-06T15:28:01.095Z,0.14
2023-03-06T15:33:28.689Z,0.15
2023-03-06T15:38:39.818Z,0.14
2023-03-06T15:43:46.408Z,0.15
2023-03-06T15:49:01.815Z,0.15
2023-03-06T15:54:12.673Z,0.15
2023-03-06T15:59:25.358Z,0.14
2023-03-06T16:04:33.717Z,0.11
2023-03-06T16:09:41.928Z,0.11
2023-03-06T16:14:50.457Z,0.09
2023-03-06T16:19:58.984Z,0.07
2023-03-06T16:25:07.478Z,0.07
2023-03-06T16:30:21.903Z,0.04
2023-03-06T16:35:30.954Z,0.03
2023-03-06T16:40:41.665Z,0.04
2023-03-06T16:45:50.098Z,0.03
2023-03-06T16:50:59.659Z,0.03
2023-03-06T16:56:09.409Z,-0.01
2023-03-06T17:01:20.379Z,0.01
2023-03-06T17:06:29.385Z,0.03
2023-03-06T17:11:40.160Z,0.01
2023-03-06T17:16:48.204Z,-0.01
2023-03-06T17:21:57.417Z,-0.03
2023-03-06T17:27:06.876Z,-0.02
2023-03-06T17:32:16.509Z,-0.04
2023-03-06T17:37:25.455Z,-0.03
2023-03-06T17:42:32.315Z,-0.04
2023-03-06T17:47:43.282Z,-0.04
2023-03-06T17:52:55.267Z,-0.03
2023-03-06T17:58:03.871Z,-0.04
2023-03-06T18:03:14.124Z,-0.05
2023-03-06T18:08:24.990Z,-0.03
2023-03-06T18:13:37.149Z,-0.04
2023-03-06T18:18:45.569Z,-0.03
2023-03-06T18:24:00.303Z,-0.03
2023-03-06T18:29:09.575Z,-0.03
2023-03-06T18:34:20.043Z,-0.01
2023-03-06T18:39:30.043Z,-0.02
2023-03-06T18:44:47.569Z,-0.01
2023-03-06T18:49:56.848Z,-0.01
2023-03-06T18:55:09.125Z,-0.03
2023-03-06T19:00:22.311Z,-0.02
2023-03-06T19:05:32.457Z,-0.01
2023-03-06T19:10:47.112Z,-0.03
2023-03-06T19:15:58.565Z,-0.03
2023-03-06T19:21:15.358Z,-0.04
2023-03-06T19:26:28.330Z,-0.04
2023-03-06T19:31:37.862Z,-0.03
2023-03-06T19:36:47.305Z,-0.04
2023-03-06T19:42:00.154Z,-0.04
2023-03-06T19:47:12.064Z,-0.03
2023-03-06T19:52:22.230Z,-0.03
2023-03-06T19:57:34.811Z,-0.04
2023-03-06T20:02:45.758Z,-0.03
2023-03-06T20:07:56.007Z,-0.05
2023-03-06T20:13:08.019Z,-0.05
2023-03-06T20:18:17.632Z,-0.04
2023-03-06T20:23:27.705Z,-0.05
2023-03-06T20:28:44.027Z,-0.05
2023-03-06T20:33:55.885Z,-0.06
2023-03-06T20:39:09.641Z,-0.08
2023-03-06T20:44:23.749Z,-0.08
2023-03-06T20:49:31.637Z,-0.09
2023-03-06T20:54:40.159Z,-0.12
2023-03-06T20:59:58.623Z,-0.13
2023-03-06T21:05:07.251Z,-0.14
2023-03-06T21:10:16.928Z,-0.16
2023-03-06T21:15:27.577Z,-0.16
2023-03-06T21:20:36.016Z,-0.16
2023-03-06T21:25:50.521Z,-0.17
2023-03-06T21:31:01.828Z,-0.16
2023-03-06T21:36:10.749Z,-0.19
2023-03-06T21:41:19.596Z,-0.24
2023-03-06T21:46:29.607Z,-0.30
2023-03-06T21:51:36.989Z,-0.37
2023-03-06T21:56:43.717Z,-0.41
2023-03-06T22:01:51.972Z,-0.46
2023-03-06T22:06:58.488Z,-0.51
2023-03-06T22:12:05.333Z,-0.52
2023-03-06T22:17:13.004Z,-0.54
2023-03-06T22:22:19.963Z,-0.56
2023-03-06T22:27:30.421Z,-0.62
2023-03-06T22:32:38.595Z,-0.67
2023-03-06T22:37:45.103Z,-0.70
2023-03-06T22:42:51.576Z,-0.71
2023-03-06T22:48:10.668Z,-0.73
2023-03-06T22:53:17.896Z,-0.69
2023-03-06T22:58:24.465Z,-0.69
2023-03-06T23:03:32.304Z,-0.70
2023-03-06T23:08:41.475Z,-0.75
2023-03-06T23:13:48.268Z,-0.75
2023-03-06T23:19:14.882Z,-0.76
2023-03-06T23:24:40.212Z,-0.77
2023-03-06T23:29:46.816Z,-0.80
2023-03-06T23:34:54.624Z,-0.83
2023-03-06T23:40:01.160Z,-0.85
2023-03-06T23:45:10.977Z,-0.86
2023-03-06T23:50:21.680Z,-0.89
2023-03-06T23:55:28.200Z,-0.87
